Flight Track Log - Related Links

Times and Time Zones

All times are in EDT time to prevent confusion due to time zone crossing. See the N53NW flight status page for this flight to view local times or setup timezone preferences in your user account.

Time Position Orientation Groundspeed Altitude Reporting Facility
EDT Latitude Longitude Course Direction KTS MPH feet Rate Location/Type
Tue 07:39:26 AM 40.2667 -85.4333 217° Southwest 258 297 2,300  Level Indianapolis TRACON
Tue 07:40:35 AM 40.2122 -85.4872 217° Southwest 232 267 4,700 2,538 Climbing Indianapolis Center
Tue 07:41:36 AM 40.1414 -85.5089 193° South 251 289 7,800 2,976 Climbing Indianapolis Center
Tue 07:42:38 AM 40.0664 -85.5311 193° South 270 311 10,800 3,290 Climbing Indianapolis Center
Tue 07:43:40 AM 39.9906 -85.5553 194° South 280 322 14,600 3,171 Climbing Indianapolis Center
Tue 07:44:41 AM 39.9192 -85.5761 193° South 264 304 17,300 2,634 Climbing Indianapolis Center
Tue 07:45:43 AM 39.8225 -85.6047 193° South 294 338 20,000 2,371 Climbing Indianapolis Center
Tue 07:46:45 AM 39.7344 -85.6317 193° South 320 368 22,200 2,146 Climbing Indianapolis Center
Tue 07:47:46 AM 39.6419 -85.6586 193° South 335 386 24,400 2,049 Climbing Indianapolis Center
Tue 07:48:48 AM 39.5450 -85.6883 193° South 354 407 26,400 1,935 Climbing Indianapolis Center
Tue 07:49:50 AM 39.4450 -85.7183 193° South 364 419 28,400 1,268 Climbing Indianapolis Center
Tue 07:50:51 AM 39.3414 -85.7489 193° South 379 436 29,000 341 Climbing Indianapolis Center
Tue 07:51:53 AM 39.2292 -85.7833 193° South 409 471 29,100 919 Climbing Indianapolis Center
Tue 07:52:55 AM 39.1192 -85.8153 193° South 407 468 30,900 1,951 Climbing Indianapolis Center
Tue 07:53:56 AM 38.9908 -85.8531 193° South 396 456 33,100 1,854 Climbing Indianapolis Center
Tue 07:54:58 AM 38.8858 -85.8831 193° South 388 447 34,700 1,403 Climbing Indianapolis Center
Tue 07:56:00 AM 38.7911 -85.9111 193° South 387 445 36,000 1,161 Climbing Indianapolis Center
Tue 07:57:02 AM 38.6856 -85.9422 193° South 386 444 37,100 1,024 Climbing Indianapolis Center
Tue 07:58:03 AM 38.5781 -85.9736 193° South 391 450 38,100 927 Climbing Indianapolis Center
Tue 07:59:05 AM 38.4486 -86.0097 192° South 392 451 39,000 435 Climbing Indianapolis Center
Tue 08:00:07 AM 38.3397 -86.0414 193° South 396 456 39,000  Level Indianapolis Center
Tue 08:01:08 AM 38.2303 -86.0736 193° South 400 460 39,000  Level Indianapolis Center
Tue 08:02:10 AM 38.1194 -86.1053 193° South 403 464 39,000 -290 Level Indianapolis Center
Tue 08:03:12 AM 38.0089 -86.1375 193° South 404 465 38,400 -878 Descending Indianapolis Center
Tue 08:04:13 AM 37.8969 -86.1692 193° South 408 470 37,200 -683 Descending Indianapolis Center
Tue 08:05:15 AM 37.7828 -86.2031 193° South 416 479 37,000 -97 Descending Indianapolis Center
Tue 08:06:17 AM 37.6689 -86.2364 193° South 416 479 37,000  Level Indianapolis Center
Tue 08:07:19 AM 37.5547 -86.2672 192° South 416 479 37,000  Level Indianapolis Center
Tue 08:07:56 AM 37.4775 -86.2881 192° South 415 478 37,000  Level Memphis Center
Tue 08:08:56 AM 37.3661 -86.3200 193° South 415 478 37,000  Level Memphis Center
Tue 08:09:56 AM 37.2497 -86.3258 182° South 415 478 37,000  Level Memphis Center
Tue 08:10:56 AM 37.1228 -86.3297 181° South 415 478 37,000  Level Memphis Center
Tue 08:11:56 AM 37.0103 -86.3328 181° South 421 484 37,000 -450 Level Memphis Center
Tue 08:12:56 AM 36.8936 -86.3361 181° South 421 484 36,100 -1,000 Descending Memphis Center
Tue 08:13:56 AM 36.7708 -86.3397 181° South 427 491 35,000 -700 Descending Memphis Center
Tue 08:14:56 AM 36.6458 -86.3356 178° South 444 511 34,700 -750 Descending Memphis Center
Tue 08:15:56 AM 36.5300 -86.3000 166° South 438 504 33,500 -900 Descending Memphis Center
Tue 08:16:56 AM 36.4247 -86.2667 166° South 433 498 32,900 -900 Descending Memphis Center
Tue 08:17:56 AM 36.3067 -86.2261 165° South 433 498 31,700 -950 Descending Memphis Center
Tue 08:18:56 AM 36.1886 -86.1883 166° South 438 504 31,000 -350 Descending Memphis Center
Tue 08:19:56 AM 36.0725 -86.1481 164° South 438 504 31,000  Level Memphis Center
Tue 08:20:56 AM 35.9525 -86.1108 166° South 438 504 31,000  Level Memphis Center
Tue 08:21:56 AM 35.8217 -86.0689 165° South 443 510 31,000  Level Memphis Center
Tue 08:24:09 AM 35.5631 -85.9917 166° South 438 504 31,000  Level Atlanta Center
Tue 08:25:09 AM 35.4428 -85.9506 164° South 444 511 31,000  Level Atlanta Center
Tue 08:26:09 AM 35.3097 -85.9069 165° South 450 518 31,000 -700 Level Atlanta Center
Tue 08:27:09 AM 35.1831 -85.8658 165° South 456 525 29,600 -1,500 Descending Atlanta Center
Tue 08:28:09 AM 35.0753 -85.8281 164° South 456 525 28,000 -1,650 Descending Atlanta Center
Tue 08:29:09 AM 34.9636 -85.7469 149° Southeast 456 525 26,300 -1,750 Descending Atlanta Center
Tue 08:30:09 AM 34.8625 -85.6689 148° Southeast 444 511 24,500 -1,150 Descending Atlanta Center
Tue 08:31:09 AM 34.7653 -85.5939 148° Southeast 432 497 24,000 -250 Descending Atlanta Center
Tue 08:32:09 AM 34.6703 -85.5164 146° Southeast 422 486 24,000 -450 Level Atlanta Center
Tue 08:33:09 AM 34.5711 -85.4389 147° Southeast 417 480 23,100 -1,350 Descending Atlanta Center
Tue 08:34:09 AM 34.4800 -85.3692 148° Southeast 412 474 21,300 -1,800 Descending Atlanta Center
Tue 08:35:09 AM 34.3869 -85.2947 147° Southeast 407 468 19,500 -1,900 Descending Atlanta Center
Tue 08:36:09 AM 34.3042 -85.2283 146° Southeast 384 442 17,500 -1,800 Descending Atlanta Center
Tue 08:37:09 AM 34.2108 -85.1567 148° Southeast 366 421 15,900 -1,650 Descending Atlanta Center
Tue 08:38:09 AM 34.1322 -85.0828 142° Southeast 361 415 14,200 -950 Descending Atlanta Center
Tue 08:39:09 AM 34.0744 -85.0069 133° Southeast 330 380 14,000 -850 Descending Atlanta Center
Tue 08:40:09 AM 34.0144 -84.9286 133° Southeast 313 360 12,500 -1,000 Descending Atlanta Center
Tue 08:41:09 AM 33.9564 -84.8553 134° Southeast 308 354 12,000 -248 Descending Atlanta Center
Tue 08:42:10 AM 33.8964 -84.7797 134° Southeast 303 349 12,000  Level Atlanta Center
Tue 08:42:43 AM 33.8667 -84.7333 128° Southeast 305 351 12,000  Level Atlanta TRACON
Tue 08:43:43 AM 33.8000 -84.6667 140° Southeast 303 349 12,000  Level Atlanta TRACON
Tue 08:44:36 AM 33.7500 -84.6000 132° Southeast 301 346 12,000 -796 Level Atlanta TRACON
Tue 08:45:36 AM 33.7333 -84.5000 101° East 291 335 10,500 -1,357 Descending Atlanta TRACON
Tue 08:46:31 AM 33.7333 -84.4167 90° East 274 315 9,400 -1,368 Descending Atlanta TRACON
Tue 08:47:30 AM 33.7333 -84.3333 90° East 259 298 7,900 -1,474 Descending Atlanta TRACON
Tue 08:48:25 AM 33.7500 -84.2667 73° East 248 285 6,600 -1,409 Descending Atlanta TRACON
Tue 08:49:25 AM 33.7333 -84.1833 104° East 243 280 5,200 -842 Descending Atlanta TRACON
Tue 08:50:19 AM 33.7333 -84.1000 90° East 240 276 5,000 -105 Descending Atlanta TRACON
Tue 08:51:19 AM 33.7333 -84.0333 90° East 239 275 5,000  Level Atlanta TRACON
Tue 08:52:19 AM 33.6833 -83.9833 140° Southeast 248 285 5,000  Level Atlanta TRACON
Tue 08:53:19 AM 33.6500 -84.0167 220° Southwest 190 219 5,000  Level Atlanta TRACON
Tue 08:54:13 AM 33.6500 -84.0833 270° West 186 214 5,000  Level Atlanta TRACON
Tue 08:55:13 AM 33.6500 -84.1333 270° West 187 215 5,000 -200 Level Atlanta TRACON
Tue 08:56:13 AM 33.6500 -84.2000 270° West 181 208 4,600 -750 Descending Atlanta TRACON
Tue 08:57:13 AM 33.6500 -84.2500 270° West 172 198 3,500 -1,000 Descending Atlanta TRACON
Tue 08:58:07 AM 33.6500 -84.3167 270° West 165 190 2,700 -789 Descending Atlanta TRACON
Tue 08:59:07 AM 33.6500 -84.3500 270° West 123 142 2,000 -700 Descending Atlanta TRACON
Tue 09:00:07 AM 33.6500 -84.3833 270° West 113 130 1,300 -700 Descending Atlanta TRACON

Login

Don't have an account? Register now (free) for customized features, flight alerts, and more!